Aérodrome :
LOGIN :

S'inscrire | Disclaimer

   EN    FR    IT 

 










Légende :    VFR   VFR Marginal   IFR   IFR Intensif   IFR Très Intensif
Visi : 
Plafond : 
>= 8 km
>= 3000ft
5 à 8 km
1000 à 3000 ft
1500m à 5 km
500 à 1000 ft
800 à 1500m
200 à 500 ft
< 800m
< 200 ft
Symboles :   Orages  Brouillard  Fortes neiges  Fortes précipitations  Vent > 20 kt
SIGMETs :   Divers  Orages  Givrage  Turbulence  Onde Orograph.  Cendres Volcan.







- Altitude de l'aérodrome : 17 ft
- Code IATA : MPL
- Voir les cartes d'approche


LFMT - Montpellier Méditerranée

DERNIER METAR :
  • 210130Z AUTO 34008KT 9999 -RA ///TCU 14/09 Q1019 BECMG 04015G25KT BKN040

METARs EXPIRÉS :
  • 210100Z AUTO 34015KT 9999 -RA ///TCU 15/10 Q1019 BECMG BKN040
  • 210030Z AUTO 32011KT CAVOK 15/10 Q1020 NOSIG
  • 210000Z AUTO 29007KT 9999 -RA ///TCU 15/10 Q1021 BECMG BKN040
  • 202330Z AUTO 21009KT 9999 -RA ///TCU 15/11 Q1021 BECMG 34010KT BKN040
  • 202300Z AUTO 25005KT 180V290 9999 -RA NSC 16/08 Q1021 NOSIG

TAF TAF LFMT
Valide du 20 à 21h jusqu'au 21 à 21h UTC


202000Z 2021/2121 VRB05KT CAVOK
BECMG 2100/2102 34010KT BKN040
BECMG 2103/2105 04015G25KT
BECMG 2106/2108 04010KT
TEMPO 2104/2113 RA
BECMG 2113/2115 36012KT CAVOK
ATIS : +33 4 67 13 11 70
Pas de NOTAMs connus pour ce terrain.
2 SIGMETs publiés pour la FIR Marseille (LFMM) :
 
Orages noyés dans la masse
LFMM SIGMET 3 VALID 202300/210300 LFPW
LFMM MARSEILLE FIR/UIR EMBD TS FCST S OF N3945 AND W OF E00515 TOP FL280 MOV NE 15KT NC=
Turbulence forte
LFMM SIGMET 2 VALID 202230/210230 LFPW
LFMM MARSEILLE FIR/UIR SEV TURB FCST E OF LINE N4330 E00845 - N4115 E00815 SFC/FL080 STNR NC=



MET'MAP, la Météo Aéronautique d'un coup d'oeil ! - Copyright ORBIFLY Décembre 2007 - Disclaimer

ORBIFLY MET'MAP TEAM :

Programmation & Développement : Alexandra Zaïnal
Conception & Développement : Baudouin d'Aumeries
Co-Programmation & Développement : Marc-Olivier Méhu
Soutien technique & logistique : Manuel Goepfert

Contact : metmap@orbifly.com




SOURCES & CREDITS :

   NOAA